Time,TemperatureF,DewpointF,PressureIn,WindDirection,WindDirectionDegrees,WindSpeedMPH,WindSpeedGustMPH,Humidity,HourlyPrecipIn,Conditions,Clouds,dailyrainin,SolarRadiationWatts/m^2,SoftwareType,DateUTC
2013-09-12 00:00:00,64.1,59.2,29.92,NW,320,0.0,0.0,84,0.00,,CLR,0.00,0.00,VWS V14.01,2013-09-12 05:00:00,
2013-09-12 00:01:00,64.0,59.1,29.92,NW,320,0.0,0.0,84,0.00,,CLR,0.00,0.00,VWS V14.01,2013-09-12 05:01:00,
2013-09-12 00:06:00,63.8,59.2,29.92,NW,320,0.0,0.0,85,0.00,,CLR,0.00,0.00,VWS V14.01,2013-09-12 05:06:00,
2013-09-12 00:10:00,63.6,59.0,29.92,NW,320,0.0,0.0,85,0.00,,CLR,0.00,0.00,VWS V14.01,2013-09-12 05:10:00,
2013-09-12 00:11:00,63.6,59.0,29.92,NW,320,0.0,0.0,85,0.00,,CLR,0.00,0.00,VWS V14.01,2013-09-12 05:11:00,
2013-09-12 00:16:00,63.3,58.7,29.92,NW,320,0.0,0.0,85,0.00,,CLR,0.00,0.00,VWS V14.01,2013-09-12 05:16:00,
2013-09-12 00:20:00,63.1,58.5,29.91,NW,320,0.0,0.0,85,0.00,,CLR,0.00,0.00,VWS V14.01,2013-09-12 05:20:00,
2013-09-12 00:21:00,63.0,58.4,29.91,NW,320,0.0,0.0,85,0.00,,CLR,0.00,0.00,VWS V14.01,2013-09-12 05:21:00,
2013-09-12 00:26:00,62.8,58.6,29.91,NW,320,0.0,0.0,86,0.00,,CLR,0.00,0.00,VWS V14.01,2013-09-12 05:26:00,
2013-09-12 00:30:00,62.7,58.5,29.91,NW,320,0.0,0.0,86,0.00,,CLR,0.00,0.00,VWS V14.01,2013-09-12 05:30:00,
2013-09-12 00:31:00,62.6,58.4,29.91,NW,320,0.0,0.0,86,0.00,,CLR,0.00,0.00,VWS V14.01,2013-09-12 05:31:00,
2013-09-12 00:36:00,62.5,58.6,29.91,NW,320,0.0,0.0,87,0.00,,CLR,0.00,0.00,VWS V14.01,2013-09-12 05:36:00,
2013-09-12 00:40:00,62.3,58.4,29.91,NW,320,0.0,0.0,87,0.00,,CLR,0.00,0.00,VWS V14.01,2013-09-12 05:40:00,
2013-09-12 00:41:00,62.3,58.4,29.91,NW,320,0.0,0.0,87,0.00,,CLR,0.00,0.00,VWS V14.01,2013-09-12 05:41:00,
2013-09-12 00:46:00,62.2,58.6,29.91,NW,320,0.0,0.0,88,0.00,,CLR,0.00,0.00,VWS V14.01,2013-09-12 05:46:00,
2013-09-12 00:50:00,62.0,58.4,29.91,NW,320,0.0,0.0,88,0.00,,CLR,0.00,0.00,VWS V14.01,2013-09-12 05:50:00,
2013-09-12 00:51:00,62.0,58.4,29.91,NW,320,0.0,0.0,88,0.00,,CLR,0.00,0.00,VWS V14.01,2013-09-12 05:51:00,
2013-09-12 00:56:00,61.8,58.2,29.91,NW,320,0.0,0.0,88,0.00,,CLR,0.00,0.00,VWS V14.01,2013-09-12 05:56:00,
2013-09-12 01:00:00,61.7,58.4,29.91,NW,320,0.0,0.0,89,0.00,,CLR,0.00,0.00,VWS V14.01,2013-09-12 06:00:00,
2013-09-12 01:01:00,61.6,58.3,29.91,NW,320,0.0,0.0,89,0.00,,,0.00,0.00,VWS V14.01,2013-09-12 06:01:00,
2013-09-12 01:06:00,61.4,58.1,29.91,NW,320,0.0,0.0,89,0.00,,,0.00,0.00,VWS V14.01,2013-09-12 06:06:00,
2013-09-12 01:10:00,61.3,58.0,29.91,NW,320,0.0,0.0,89,0.00,,CLR,0.00,0.00,VWS V14.01,2013-09-12 06:10:00,
2013-09-12 01:11:00,61.2,57.9,29.91,NW,320,0.0,0.0,89,0.00,,,0.00,0.00,VWS V14.01,2013-09-12 06:11:00,
2013-09-12 01:16:00,61.1,57.8,29.91,NW,320,0.0,0.0,89,0.00,,,0.00,0.00,VWS V14.01,2013-09-12 06:16:00,
2013-09-12 01:20:00,61.0,57.7,29.91,NW,320,0.0,0.0,89,0.00,,CLR,0.00,0.00,VWS V14.01,2013-09-12 06:20:00,
2013-09-12 01:21:00,60.9,57.6,29.91,NW,320,0.0,0.0,89,0.00,,,0.00,0.00,VWS V14.01,2013-09-12 06:21:00,
2013-09-12 01:26:00,60.8,57.8,29.91,NW,320,0.0,0.0,90,0.00,,,0.00,0.00,VWS V14.01,2013-09-12 06:26:00,
2013-09-12 01:30:00,60.7,57.8,29.91,NW,320,0.0,0.0,90,0.00,,CLR,0.00,0.00,VWS V14.01,2013-09-12 06:30:00,
2013-09-12 01:31:00,60.7,57.8,29.91,NW,320,0.0,0.0,90,0.00,,,0.00,0.00,VWS V14.01,2013-09-12 06:31:00,
2013-09-12 01:36:00,60.5,57.6,29.90,NW,320,0.0,0.0,90,0.00,,,0.00,0.00,VWS V14.01,2013-09-12 06:36:00,
2013-09-12 01:40:00,60.5,57.6,29.90,NW,320,0.0,0.0,90,0.00,,CLR,0.00,0.00,VWS V14.01,2013-09-12 06:40:00,
2013-09-12 01:41:00,60.4,57.5,29.91,NW,320,0.0,0.0,90,0.00,,,0.00,0.00,VWS V14.01,2013-09-12 06:41:00,
2013-09-12 01:46:00,60.3,57.4,29.90,NW,320,0.0,0.0,90,0.00,,CLR,0.00,0.00,VWS V14.01,2013-09-12 06:46:00,
2013-09-12 01:50:00,60.2,57.3,29.90,NW,320,0.0,0.0,90,0.00,,CLR,0.00,0.00,VWS V14.01,2013-09-12 06:50:00,
2013-09-12 01:51:00,60.2,57.3,29.90,NW,320,0.0,0.0,90,0.00,,CLR,0.00,0.00,VWS V14.01,2013-09-12 06:51:00,
2013-09-12 01:56:00,60.1,57.5,29.90,NW,320,0.0,0.0,91,0.00,,CLR,0.00,0.00,VWS V14.01,2013-09-12 06:56:00,
2013-09-12 02:00:00,60.0,57.4,29.90,NW,320,0.0,0.0,91,0.00,,CLR,0.00,0.00,VWS V14.01,2013-09-12 07:00:00,
2013-09-12 02:01:00,60.0,57.4,29.90,NW,320,0.0,0.0,91,0.00,,CLR,0.00,0.00,VWS V14.01,2013-09-12 07:01:00,
2013-09-12 02:06:00,59.9,57.3,29.90,NW,320,0.0,0.0,91,0.00,,CLR,0.00,0.00,VWS V14.01,2013-09-12 07:06:00,
2013-09-12 02:10:00,59.8,57.2,29.90,NW,320,0.0,0.0,91,0.00,,CLR,0.00,0.00,VWS V14.01,2013-09-12 07:10:00,
2013-09-12 02:11:00,59.8,57.2,29.90,NW,320,0.0,0.0,91,0.00,,CLR,0.00,0.00,VWS V14.01,2013-09-12 07:11:00,
2013-09-12 02:16:00,59.6,57.0,29.90,NW,320,0.0,0.0,91,0.00,,CLR,0.00,0.00,VWS V14.01,2013-09-12 07:16:00,
2013-09-12 02:20:00,59.6,57.0,29.92,NNE,18,7.0,11.0,91,0.00,,CLR,0.00,0.00,VWS V14.01,2013-09-12 07:20:00,
2013-09-12 02:21:00,59.6,57.3,29.92,NNE,16,3.0,7.0,92,0.00,,CLR,0.00,0.00,VWS V14.01,2013-09-12 07:21:00,
2013-09-12 02:26:00,59.6,57.3,29.92,NNW,345,1.0,7.0,92,0.00,,CLR,0.00,0.00,VWS V14.01,2013-09-12 07:26:00,
2013-09-12 02:30:00,59.6,57.3,29.91,NNW,345,0.0,7.0,92,0.00,,CLR,0.00,0.00,VWS V14.01,2013-09-12 07:30:00,
2013-09-12 02:31:00,59.6,57.3,29.91,NNW,345,0.0,2.0,92,0.00,,CLR,0.00,0.00,VWS V14.01,2013-09-12 07:31:00,
2013-09-12 02:36:00,59.8,57.5,29.91,NNW,345,0.0,2.0,92,0.00,,CLR,0.00,0.00,VWS V14.01,2013-09-12 07:36:00,
2013-09-12 02:40:00,59.8,57.2,29.91,NNW,345,0.0,2.0,91,0.00,,CLR,0.00,0.00,VWS V14.01,2013-09-12 07:40:00,
2013-09-12 02:41:00,59.8,57.2,29.91,NNW,345,0.0,0.0,91,0.00,,CLR,0.00,0.00,VWS V14.01,2013-09-12 07:41:00,
2013-09-12 02:46:00,59.8,57.2,29.91,NNW,345,0.0,1.0,91,0.00,,BKN080,0.00,0.00,VWS V14.01,2013-09-12 07:46:00,
2013-09-12 02:50:00,59.8,57.2,29.92,NNW,345,0.0,1.0,91,0.00,,CLR,0.00,0.00,VWS V14.01,2013-09-12 07:50:00,
2013-09-12 02:51:00,59.8,57.2,29.92,NNW,345,0.0,0.0,91,0.00,,BKN080,0.00,0.00,VWS V14.01,2013-09-12 07:51:00,
2013-09-12 02:56:00,59.7,56.8,29.92,NNW,345,0.0,0.0,90,0.00,,BKN080,0.00,0.00,VWS V14.01,2013-09-12 07:56:00,
2013-09-12 03:00:00,59.6,56.7,29.92,NNW,345,0.0,0.0,90,0.00,,CLR,0.00,0.00,VWS V14.01,2013-09-12 08:00:00,
2013-09-12 03:01:00,59.6,56.7,29.92,NNW,345,0.0,0.0,90,0.00,,BKN080,0.00,0.00,VWS V14.01,2013-09-12 08:01:00,
2013-09-12 03:06:00,59.5,56.6,29.92,NNW,345,0.0,0.0,90,0.00,,BKN080,0.00,0.00,VWS V14.01,2013-09-12 08:06:00,
2013-09-12 03:10:00,59.5,56.6,29.92,NNW,345,0.0,0.0,90,0.00,,CLR,0.00,0.00,VWS V14.01,2013-09-12 08:10:00,
2013-09-12 03:11:00,59.4,56.5,29.92,NNW,345,0.0,0.0,90,0.00,,BKN080,0.00,0.00,VWS V14.01,2013-09-12 08:11:00,
2013-09-12 03:16:00,59.3,56.4,29.92,NNW,345,0.0,0.0,90,0.00,,BKN080,0.00,0.00,VWS V14.01,2013-09-12 08:16:00,
2013-09-12 03:20:00,59.3,56.4,29.92,NNW,345,0.0,0.0,90,0.00,,CLR,0.00,0.00,VWS V14.01,2013-09-12 08:20:00,
2013-09-12 03:21:00,59.3,56.4,29.91,NNW,345,0.0,0.0,90,0.00,,BKN080,0.00,0.00,VWS V14.01,2013-09-12 08:21:00,
2013-09-12 03:26:00,59.1,56.2,29.91,NNW,345,0.0,0.0,90,0.00,,BKN080,0.00,0.00,VWS V14.01,2013-09-12 08:26:00,
2013-09-12 03:30:00,58.9,56.0,29.91,NNW,345,0.0,0.0,90,0.00,,CLR,0.00,0.00,VWS V14.01,2013-09-12 08:30:00,
2013-09-12 03:31:00,58.8,55.9,29.91,NNW,345,0.0,0.0,90,0.00,,SCT080,0.00,0.00,VWS V14.01,2013-09-12 08:31:00,
2013-09-12 03:36:00,58.6,55.7,29.92,NNW,345,0.0,0.0,90,0.00,,SCT080,0.00,0.00,VWS V14.01,2013-09-12 08:36:00,
2013-09-12 03:40:00,58.4,55.5,29.91,NNW,345,0.0,0.0,90,0.00,,CLR,0.00,0.00,VWS V14.01,2013-09-12 08:40:00,
2013-09-12 03:41:00,58.4,55.5,29.91,NNW,345,0.0,0.0,90,0.00,,SCT080,0.00,0.00,VWS V14.01,2013-09-12 08:41:00,
2013-09-12 03:46:00,58.3,55.4,29.91,NNW,345,0.0,0.0,90,0.00,,CLR,0.00,0.00,VWS V14.01,2013-09-12 08:46:00,
2013-09-12 03:50:00,58.2,55.6,29.92,NNW,345,0.0,0.0,91,0.00,,CLR,0.00,0.00,VWS V14.01,2013-09-12 08:50:00,
2013-09-12 03:51:00,58.2,55.6,29.91,NNW,345,0.0,0.0,91,0.00,,CLR,0.00,0.00,VWS V14.01,2013-09-12 08:51:00,
2013-09-12 03:56:00,58.1,55.5,29.91,NNW,345,0.0,0.0,91,0.00,,CLR,0.00,0.00,VWS V14.01,2013-09-12 08:56:00,
2013-09-12 04:00:00,58.0,55.4,29.92,NNW,345,0.0,0.0,91,0.00,,CLR,0.00,0.00,VWS V14.01,2013-09-12 09:00:00,
2013-09-12 04:01:00,58.0,55.4,29.91,NNW,345,0.0,0.0,91,0.00,,CLR,0.00,0.00,VWS V14.01,2013-09-12 09:01:00,
2013-09-12 04:06:00,57.8,55.2,29.92,NNW,345,0.0,0.0,91,0.00,,CLR,0.00,0.00,VWS V14.01,2013-09-12 09:06:00,
2013-09-12 04:10:00,57.6,55.0,29.91,NNW,345,0.0,0.0,91,0.00,,CLR,0.00,0.00,VWS V14.01,2013-09-12 09:10:00,
2013-09-12 04:11:00,57.6,55.0,29.92,NNW,345,0.0,0.0,91,0.00,,CLR,0.00,0.00,VWS V14.01,2013-09-12 09:11:00,
2013-09-12 04:16:00,57.4,55.1,29.92,NNW,345,0.0,0.0,92,0.00,,CLR,0.00,0.00,VWS V14.01,2013-09-12 09:16:00,
2013-09-12 04:20:00,57.3,55.0,29.91,NNW,345,0.0,0.0,92,0.00,,CLR,0.00,0.00,VWS V14.01,2013-09-12 09:20:00,
2013-09-12 04:21:00,57.3,55.0,29.92,NNW,345,0.0,0.0,92,0.00,,CLR,0.00,0.00,VWS V14.01,2013-09-12 09:21:00,
2013-09-12 04:26:00,57.1,54.8,29.92,NNW,345,0.0,0.0,92,0.00,,CLR,0.00,0.00,VWS V14.01,2013-09-12 09:26:00,
2013-09-12 04:30:00,57.0,54.7,29.92,NNW,345,0.0,0.0,92,0.00,,CLR,0.00,0.00,VWS V14.01,2013-09-12 09:30:00,
2013-09-12 04:31:00,56.9,54.6,29.92,NNW,345,0.0,0.0,92,0.00,,CLR,0.00,0.00,VWS V14.01,2013-09-12 09:31:00,
2013-09-12 04:36:00,56.8,54.5,29.92,NNW,345,0.0,0.0,92,0.00,,CLR,0.00,0.00,VWS V14.01,2013-09-12 09:36:00,
2013-09-12 04:40:00,56.8,54.5,29.92,NNW,345,0.0,0.0,92,0.00,,CLR,0.00,0.00,VWS V14.01,2013-09-12 09:40:00,
2013-09-12 04:41:00,56.8,54.5,29.92,NNW,345,0.0,0.0,92,0.00,,CLR,0.00,0.00,VWS V14.01,2013-09-12 09:41:00,
2013-09-12 04:46:00,56.7,54.7,29.92,NNW,345,0.0,0.0,93,0.00,,CLR,0.00,0.00,VWS V14.01,2013-09-12 09:46:00,
2013-09-12 04:50:00,56.7,54.7,29.92,NNW,345,0.0,0.0,93,0.00,,CLR,0.00,0.00,VWS V14.01,2013-09-12 09:50:00,
2013-09-12 04:51:00,56.7,54.7,29.92,NNW,345,0.0,0.0,93,0.00,,CLR,0.00,0.00,VWS V14.01,2013-09-12 09:51:00,
2013-09-12 04:56:00,56.7,54.7,29.92,NNW,345,0.0,0.0,93,0.00,,CLR,0.00,0.00,VWS V14.01,2013-09-12 09:56:00,
2013-09-12 05:00:00,56.7,54.7,29.92,NNW,345,0.0,0.0,93,0.00,,CLR,0.00,0.00,VWS V14.01,2013-09-12 10:00:00,
2013-09-12 05:01:00,56.7,54.7,29.92,NNW,345,0.0,0.0,93,0.00,,SCT085,0.00,0.00,VWS V14.01,2013-09-12 10:01:00,
2013-09-12 05:06:00,56.8,54.8,29.92,NNW,345,0.0,0.0,93,0.00,,SCT085,0.00,0.00,VWS V14.01,2013-09-12 10:06:00,
2013-09-12 05:10:00,56.8,54.8,29.92,NNW,345,0.0,0.0,93,0.00,,CLR,0.00,0.00,VWS V14.01,2013-09-12 10:10:00,
2013-09-12 05:11:00,56.8,54.8,29.92,NNW,345,0.0,0.0,93,0.00,,SCT085,0.00,0.00,VWS V14.01,2013-09-12 10:11:00,
2013-09-12 05:16:00,56.8,54.8,29.92,NNW,345,0.0,0.0,93,0.00,,SCT085,0.00,0.00,VWS V14.01,2013-09-12 10:16:00,
2013-09-12 05:20:00,56.8,54.8,29.92,NNW,345,0.0,0.0,93,0.00,,CLR,0.00,0.00,VWS V14.01,2013-09-12 10:20:00,
2013-09-12 05:21:00,56.8,54.8,29.92,NNW,345,0.0,0.0,93,0.00,,SCT085,0.00,0.00,VWS V14.01,2013-09-12 10:21:00,
2013-09-12 05:26:00,56.8,54.8,29.92,NNW,345,0.0,0.0,93,0.00,,SCT085,0.00,0.00,VWS V14.01,2013-09-12 10:26:00,
2013-09-12 05:30:00,56.8,54.8,29.93,NNW,345,0.0,0.0,93,0.00,,CLR,0.00,0.00,VWS V14.01,2013-09-12 10:30:00,
2013-09-12 05:31:00,56.8,54.8,29.92,NNW,345,0.0,0.0,93,0.00,,SCT085,0.00,0.00,VWS V14.01,2013-09-12 10:31:00,
2013-09-12 05:36:00,56.8,55.1,29.93,NNW,345,0.0,0.0,94,0.00,,SCT085,0.00,0.00,VWS V14.01,2013-09-12 10:36:00,
2013-09-12 05:40:00,56.9,55.2,29.93,NNW,345,0.0,0.0,94,0.00,,CLR,0.00,0.00,VWS V14.01,2013-09-12 10:40:00,
2013-09-12 05:41:00,56.9,55.2,29.93,NNW,345,0.0,0.0,94,0.00,,SCT085,0.00,0.00,VWS V14.01,2013-09-12 10:41:00,
2013-09-12 05:46:00,56.9,55.2,29.94,NNW,345,3.0,3.0,94,0.00,,SCT085,0.00,0.00,VWS V14.01,2013-09-12 10:46:00,
2013-09-12 05:50:00,57.1,55.4,29.94,North,355,0.0,6.0,94,0.00,,CLR,0.00,0.00,VWS V14.01,2013-09-12 10:50:00,
2013-09-12 05:51:00,57.1,55.4,29.94,NNE,20,1.0,5.0,94,0.00,,SCT085,0.00,0.00,VWS V14.01,2013-09-12 10:51:00,
2013-09-12 05:56:00,57.1,55.1,29.94,NNE,16,1.0,5.0,93,0.00,,SCT085,0.00,0.00,VWS V14.01,2013-09-12 10:56:00,
2013-09-12 06:00:00,57.3,55.3,29.94,NNE,16,0.0,5.0,93,0.00,,CLR,0.00,0.00,VWS V14.01,2013-09-12 11:00:00,
2013-09-12 06:01:00,57.3,55.3,29.94,NNE,16,1.0,1.0,93,0.00,,BKN085,0.00,0.00,VWS V14.01,2013-09-12 11:01:00,
2013-09-12 06:06:00,57.5,55.5,29.94,NNE,16,0.0,3.0,93,0.00,,BKN085,0.00,0.00,VWS V14.01,2013-09-12 11:06:00,
2013-09-12 06:10:00,57.7,55.7,29.94,NNE,16,0.0,3.0,93,0.00,,CLR,0.00,0.00,VWS V14.01,2013-09-12 11:10:00,
2013-09-12 06:11:00,57.7,55.7,29.94,NNE,16,2.0,3.0,93,0.00,,BKN085,0.00,0.00,VWS V14.01,2013-09-12 11:11:00,
2013-09-12 06:16:00,57.9,55.6,29.95,NNE,16,1.0,3.0,92,0.00,,BKN085,0.00,0.00,VWS V14.01,2013-09-12 11:16:00,
2013-09-12 06:20:00,58.0,55.7,29.95,NNE,19,0.0,4.0,92,0.00,,CLR,0.00,0.00,VWS V14.01,2013-09-12 11:20:00,
2013-09-12 06:21:00,58.1,55.8,29.95,NNE,19,2.0,3.0,92,0.00,,BKN085,0.00,0.00,VWS V14.01,2013-09-12 11:21:00,
2013-09-12 06:26:00,58.2,55.6,29.95,North,10,0.0,4.0,91,0.00,,BKN085,0.00,0.00,VWS V14.01,2013-09-12 11:26:00,
2013-09-12 06:30:00,58.2,55.6,29.95,North,10,0.0,4.0,91,0.00,,CLR,0.00,0.00,VWS V14.01,2013-09-12 11:30:00,
2013-09-12 06:31:00,58.2,55.6,29.95,North,10,0.0,1.0,91,0.00,,BKN085,0.00,0.00,VWS V14.01,2013-09-12 11:31:00,
2013-09-12 06:36:00,58.3,55.4,29.95,North,10,0.0,1.0,90,0.00,,BKN085,0.00,0.00,VWS V14.01,2013-09-12 11:36:00,
2013-09-12 06:40:00,58.2,55.3,29.95,North,10,0.0,1.0,90,0.00,,CLR,0.00,0.00,VWS V14.01,2013-09-12 11:40:00,
2013-09-12 06:41:00,58.2,55.3,29.95,North,10,0.0,1.0,90,0.00,,BKN085,0.00,0.00,VWS V14.01,2013-09-12 11:41:00,
2013-09-12 06:46:00,58.2,55.3,29.95,North,10,0.0,2.0,90,0.00,,SCT070,0.00,0.00,VWS V14.01,2013-09-12 11:46:00,
2013-09-12 06:50:00,58.2,55.3,29.96,North,10,0.0,2.0,90,0.00,,CLR,0.00,5.00,VWS V14.01,2013-09-12 11:50:00,
2013-09-12 06:51:00,58.2,55.3,29.95,North,10,0.0,2.0,90,0.00,,SCT070,0.00,5.00,VWS V14.01,2013-09-12 11:51:00,
2013-09-12 06:56:00,58.1,54.9,29.96,North,10,0.0,2.0,89,0.00,,SCT070,0.00,7.00,VWS V14.01,2013-09-12 11:56:00,
2013-09-12 07:00:00,58.0,54.8,29.96,North,10,0.0,2.0,89,0.00,,CLR,0.00,9.00,VWS V14.01,2013-09-12 12:00:00,
2013-09-12 07:01:00,58.0,54.8,29.96,North,10,0.0,0.0,89,0.00,,CLR,0.00,9.00,VWS V14.01,2013-09-12 12:01:00,
2013-09-12 07:06:00,58.0,54.8,29.96,North,10,0.0,1.0,89,0.00,,CLR,0.00,11.00,VWS V14.01,2013-09-12 12:06:00,
2013-09-12 07:10:00,58.0,54.8,29.96,North,10,0.0,1.0,89,0.00,,CLR,0.00,11.00,VWS V14.01,2013-09-12 12:10:00,
2013-09-12 07:11:00,58.1,54.9,29.96,North,10,0.0,1.0,89,0.00,,CLR,0.00,12.00,VWS V14.01,2013-09-12 12:11:00,
2013-09-12 07:16:00,58.1,54.9,29.96,North,10,0.0,1.0,89,0.00,,CLR,0.00,12.00,VWS V14.01,2013-09-12 12:16:00,
2013-09-12 07:20:00,58.1,54.9,29.96,North,360,0.0,3.0,89,0.00,,CLR,0.00,14.00,VWS V14.01,2013-09-12 12:20:00,
2013-09-12 07:21:00,58.2,55.0,29.96,North,360,0.0,1.0,89,0.00,,CLR,0.00,14.00,VWS V14.01,2013-09-12 12:21:00,
2013-09-12 07:26:00,58.3,54.8,29.96,North,360,1.0,2.0,88,0.00,,CLR,0.00,16.00,VWS V14.01,2013-09-12 12:26:00,
2013-09-12 07:30:00,58.4,54.9,29.96,North,355,2.0,4.0,88,0.00,,CLR,0.00,18.00,VWS V14.01,2013-09-12 12:30:00,
2013-09-12 07:31:00,58.4,54.9,29.96,NNW,346,0.0,3.0,88,0.00,,CLR,0.00,18.00,VWS V14.01,2013-09-12 12:31:00,
2013-09-12 07:35:00,58.5,55.0,29.96,NNW,347,0.0,3.0,88,0.00,,CLR,0.00,14.00,VWS V14.01,2013-09-12 12:35:00,
2013-09-12 07:40:00,58.6,55.1,29.97,NNW,335,4.0,7.0,88,0.00,,CLR,0.00,23.00,VWS V14.01,2013-09-12 12:40:00,
2013-09-12 07:45:00,58.7,55.2,29.97,NNE,26,4.0,7.0,88,0.00,,SCT070,0.00,19.00,VWS V14.01,2013-09-12 12:45:00,
2013-09-12 07:50:00,58.9,55.4,29.97,North,5,2.0,5.0,88,0.00,,SCT070,0.00,28.00,VWS V14.01,2013-09-12 12:50:00,
2013-09-12 07:55:00,59.1,55.5,29.97,North,5,0.0,6.0,88,0.00,,SCT070,0.00,30.00,VWS V14.01,2013-09-12 12:55:00,
2013-09-12 08:00:00,59.2,55.3,29.97,North,10,5.0,7.0,87,0.00,,CLR,0.00,35.00,VWS V14.01,2013-09-12 13:00:00,
2013-09-12 08:05:00,59.4,55.5,29.97,NNE,19,3.0,12.0,87,0.00,,CLR,0.00,53.00,VWS V14.01,2013-09-12 13:05:00,
2013-09-12 08:10:00,59.6,55.4,29.98,North,355,3.0,7.0,86,0.00,,CLR,0.00,211.00,VWS V14.01,2013-09-12 13:10:00,
2013-09-12 08:15:00,60.0,55.5,29.98,NNW,336,2.0,10.0,85,0.00,,CLR,0.00,322.00,VWS V14.01,2013-09-12 13:15:00,
2013-09-12 08:20:00,60.4,55.5,29.98,NNW,341,11.0,11.0,84,0.00,,CLR,0.00,294.00,VWS V14.01,2013-09-12 13:20:00,
2013-09-12 08:25:00,60.7,55.8,29.98,North,360,2.0,14.0,84,0.00,,CLR,0.00,65.00,VWS V14.01,2013-09-12 13:25:00,
2013-09-12 08:30:00,60.8,55.9,29.97,North,5,3.0,9.0,84,0.00,,CLR,0.00,88.00,VWS V14.01,2013-09-12 13:30:00,
2013-09-12 08:35:00,60.8,55.9,29.97,NNW,348,0.0,9.0,84,0.00,,CLR,0.00,69.00,VWS V14.01,2013-09-12 13:35:00,
2013-09-12 08:40:00,60.8,55.9,29.98,North,11,4.0,5.0,84,0.00,,CLR,0.00,144.00,VWS V14.01,2013-09-12 13:40:00,
2013-09-12 08:45:00,60.9,56.4,29.98,NNW,348,5.0,9.0,85,0.00,,SCT070,0.00,179.00,VWS V14.01,2013-09-12 13:45:00,
2013-09-12 08:50:00,61.0,55.8,29.98,NNE,12,5.0,6.0,83,0.00,,SCT070,0.00,153.00,VWS V14.01,2013-09-12 13:50:00,
2013-09-12 08:55:00,61.1,56.2,29.98,West,276,4.0,12.0,84,0.00,,SCT070,0.00,151.00,VWS V14.01,2013-09-12 13:55:00,
2013-09-12 09:00:00,61.1,56.2,29.98,NNW,345,6.0,6.0,84,0.00,,SCT070,0.00,118.00,VWS V14.01,2013-09-12 14:00:00,
2013-09-12 09:05:00,61.2,56.7,29.98,NW,326,1.0,8.0,85,0.00,,SCT070,0.00,130.00,VWS V14.01,2013-09-12 14:05:00,
2013-09-12 09:10:00,61.1,56.2,29.99,North,5,4.0,4.0,84,0.00,,SCT070,0.00,121.00,VWS V14.01,2013-09-12 14:10:00,
2013-09-12 09:15:00,61.1,55.9,29.98,NNW,335,8.0,8.0,83,0.00,,SCT070,0.00,132.00,VWS V14.01,2013-09-12 14:15:00,
2013-09-12 09:20:00,61.3,56.4,29.98,NNE,16,1.0,5.0,84,0.00,,SCT070,0.00,79.00,VWS V14.01,2013-09-12 14:20:00,
2013-09-12 09:25:00,61.6,56.4,29.98,North,5,8.0,9.0,83,0.00,,SCT070,0.00,70.00,VWS V14.01,2013-09-12 14:25:00,
2013-09-12 09:30:00,61.9,56.3,29.98,NE,46,5.0,9.0,82,0.00,,BKN050,0.00,121.00,VWS V14.01,2013-09-12 14:30:00,
2013-09-12 09:35:00,62.1,56.2,29.98,NW,309,3.0,11.0,81,0.00,,BKN050,0.00,105.00,VWS V14.01,2013-09-12 14:35:00,
2013-09-12 09:40:00,62.1,56.2,29.99,NNW,344,0.0,7.0,81,0.00,,BKN050,0.00,320.00,VWS V14.01,2013-09-12 14:40:00,
2013-09-12 09:45:00,62.3,56.4,29.99,NNW,348,1.0,9.0,81,0.00,,BKN048,0.00,589.00,VWS V14.01,2013-09-12 14:45:00,
2013-09-12 09:50:00,62.6,56.3,29.99,North,5,1.0,4.0,80,0.00,,BKN048,0.00,606.00,VWS V14.01,2013-09-12 14:50:00,
2013-09-12 09:55:00,63.0,56.7,29.99,NNW,344,4.0,9.0,80,0.00,,BKN048,0.00,724.00,VWS V14.01,2013-09-12 14:55:00,
2013-09-12 10:00:00,63.4,56.4,29.99,North,5,7.0,7.0,78,0.00,,OVC060,0.00,214.00,VWS V14.01,2013-09-12 15:00:00,
2013-09-12 10:05:00,63.6,56.6,29.99,NNW,343,5.0,9.0,78,0.00,,OVC060,0.00,83.00,VWS V14.01,2013-09-12 15:05:00,
2013-09-12 10:10:00,63.6,56.6,30.00,NNW,348,4.0,6.0,78,0.00,,OVC060,0.00,635.00,VWS V14.01,2013-09-12 15:10:00,
2013-09-12 10:15:00,63.8,56.1,30.00,NNE,32,5.0,6.0,76,0.00,,OVC060,0.00,645.00,VWS V14.01,2013-09-12 15:15:00,
2013-09-12 10:20:00,64.2,56.8,30.00,North,360,6.0,7.0,77,0.00,,OVC060,0.00,737.00,VWS V14.01,2013-09-12 15:20:00,
2013-09-12 10:25:00,64.5,56.8,30.00,North,360,0.0,7.0,76,0.00,,OVC060,0.00,380.00,VWS V14.01,2013-09-12 15:25:00,
2013-09-12 10:30:00,64.7,56.6,30.01,NNW,336,1.0,10.0,75,0.00,,BKN060,0.00,105.00,VWS V14.01,2013-09-12 15:30:00,
2013-09-12 10:35:00,64.6,56.1,30.01,NW,325,3.0,10.0,74,0.00,,BKN060,0.00,174.00,VWS V14.01,2013-09-12 15:35:00,
2013-09-12 10:40:00,65.0,56.9,30.01,WSW,237,3.0,12.0,75,0.00,,BKN060,0.00,176.00,VWS V14.01,2013-09-12 15:40:00,
2013-09-12 10:45:00,65.9,56.2,30.00,WNW,302,10.0,12.0,71,0.00,,BKN060,0.00,824.00,VWS V14.01,2013-09-12 15:45:00,
2013-09-12 10:50:00,66.4,56.3,30.01,North,360,1.0,6.0,70,0.00,,BKN060,0.00,621.00,VWS V14.01,2013-09-12 15:50:00,
2013-09-12 10:55:00,66.9,57.6,30.01,WNW,301,2.0,14.0,72,0.00,,BKN060,0.00,162.00,VWS V14.01,2013-09-12 15:55:00,
2013-09-12 11:00:00,66.7,55.8,30.01,NW,321,3.0,7.0,68,0.00,,BKN050,0.00,188.00,VWS V14.01,2013-09-12 16:00:00,
2013-09-12 11:05:00,66.6,56.1,30.01,WSW,256,3.0,10.0,69,0.00,,BKN050,0.00,128.00,VWS V14.01,2013-09-12 16:05:00,
2013-09-12 11:10:00,66.2,56.1,30.01,North,355,1.0,5.0,70,0.00,,BKN050,0.00,188.00,VWS V14.01,2013-09-12 16:10:00,
2013-09-12 11:15:00,66.2,56.5,30.01,NNW,344,4.0,13.0,71,0.00,,BKN050,0.00,113.00,VWS V14.01,2013-09-12 16:15:00,
2013-09-12 11:20:00,66.1,56.0,30.01,WNW,295,1.0,10.0,70,0.00,,BKN050,0.00,176.00,VWS V14.01,2013-09-12 16:20:00,
2013-09-12 11:25:00,65.8,55.8,30.01,North,360,6.0,10.0,70,0.00,,BKN050,0.00,127.00,VWS V14.01,2013-09-12 16:25:00,
2013-09-12 11:30:00,66.1,56.4,30.01,North,5,6.0,11.0,71,0.00,,BKN043,0.00,912.00,VWS V14.01,2013-09-12 16:30:00,
2013-09-12 11:35:00,66.5,55.6,30.01,NW,323,3.0,11.0,68,0.00,,BKN043,0.00,831.00,VWS V14.01,2013-09-12 16:35:00,
2013-09-12 11:40:00,67.2,56.7,30.01,North,355,6.0,11.0,69,0.00,,BKN043,0.00,907.00,VWS V14.01,2013-09-12 16:40:00,
2013-09-12 11:45:00,67.6,56.3,30.00,NNE,19,5.0,12.0,67,0.00,,SCT050,0.00,988.00,VWS V14.01,2013-09-12 16:45:00,
2013-09-12 11:50:00,67.4,56.5,30.01,NNW,339,1.0,4.0,68,0.00,,SCT050,0.00,63.00,VWS V14.01,2013-09-12 16:50:00,
2013-09-12 11:55:00,66.9,56.8,30.02,NNE,15,0.0,7.0,70,0.00,,SCT050,0.00,956.00,VWS V14.01,2013-09-12 16:55:00,
2013-09-12 12:00:00,67.7,56.8,30.01,North,9,15.0,17.0,68,0.00,,BKN050,0.00,141.00,VWS V14.01,2013-09-12 17:00:00,
2013-09-12 12:05:00,67.2,56.3,30.02,North,360,7.0,17.0,68,0.00,,BKN050,0.00,185.00,VWS V14.01,2013-09-12 17:05:00,
2013-09-12 12:10:00,66.3,55.4,30.02,NNW,335,0.0,5.0,68,0.00,,BKN050,0.00,158.00,VWS V14.01,2013-09-12 17:10:00,
2013-09-12 12:15:00,66.7,56.2,30.02,NNE,19,6.0,8.0,69,0.00,,BKN050,0.00,882.00,VWS V14.01,2013-09-12 17:15:00,
2013-09-12 12:20:00,67.6,55.8,30.01,NNE,14,8.0,9.0,66,0.00,,BKN050,0.00,977.00,VWS V14.01,2013-09-12 17:20:00,
2013-09-12 12:25:00,67.8,55.6,30.01,North,9,6.0,15.0,65,0.00,,BKN050,0.00,243.00,VWS V14.01,2013-09-12 17:25:00,
2013-09-12 12:30:00,67.3,54.3,30.01,NW,326,4.0,10.0,63,0.00,,SCT060,0.00,255.00,VWS V14.01,2013-09-12 17:30:00,
2013-09-12 12:35:00,67.2,55.0,30.01,NNW,339,2.0,10.0,65,0.00,,SCT060,0.00,846.00,VWS V14.01,2013-09-12 17:35:00,
2013-09-12 12:40:00,68.3,55.7,30.00,NNW,331,4.0,6.0,64,0.00,,SCT060,0.00,851.00,VWS V14.01,2013-09-12 17:40:00,
2013-09-12 12:45:00,69.0,55.9,30.00,NNE,17,4.0,9.0,63,0.00,,SCT075,0.00,853.00,VWS V14.01,2013-09-12 17:45:00,
2013-09-12 12:50:00,69.2,55.6,30.00,North,351,4.0,7.0,62,0.00,,SCT075,0.00,958.00,VWS V14.01,2013-09-12 17:50:00,
2013-09-12 12:55:00,69.5,55.0,30.00,NW,325,1.0,10.0,60,0.00,,SCT075,0.00,942.00,VWS V14.01,2013-09-12 17:55:00,
2013-09-12 13:00:00,69.3,55.7,30.00,NNE,18,9.0,12.0,62,0.00,,SCT070,0.00,895.00,VWS V14.01,2013-09-12 18:00:00,
2013-09-12 13:05:00,69.5,56.4,30.00,ENE,66,4.0,13.0,63,0.00,,SCT070,0.00,914.00,VWS V14.01,2013-09-12 18:05:00,
2013-09-12 13:10:00,70.3,56.7,30.00,NW,308,7.0,7.0,62,0.00,,SCT070,0.00,888.00,VWS V14.01,2013-09-12 18:10:00,
2013-09-12 13:15:00,69.7,54.8,30.00,WNW,290,1.0,8.0,59,0.00,,SCT070,0.00,967.00,VWS V14.01,2013-09-12 18:15:00,
2013-09-12 13:20:00,69.8,54.8,30.00,West,277,6.0,10.0,59,0.00,,SCT070,0.00,1013.00,VWS V14.01,2013-09-12 18:20:00,
2013-09-12 13:25:00,69.9,55.8,29.99,NNW,328,11.0,12.0,61,0.00,,SCT070,0.00,1000.00,VWS V14.01,2013-09-12 18:25:00,
2013-09-12 13:30:00,69.5,55.0,30.00,West,264,11.0,11.0,60,0.00,,SCT070,0.00,257.00,VWS V14.01,2013-09-12 18:30:00,
2013-09-12 13:35:00,68.8,55.3,30.00,North,11,4.0,11.0,62,0.00,,SCT070,0.00,846.00,VWS V14.01,2013-09-12 18:35:00,
2013-09-12 13:40:00,69.6,55.6,29.99,North,355,3.0,6.0,61,0.00,,SCT070,0.00,921.00,VWS V14.01,2013-09-12 18:40:00,
2013-09-12 13:45:00,69.5,55.0,29.99,North,9,0.0,11.0,60,0.00,,BKN065,0.00,105.00,VWS V14.01,2013-09-12 18:45:00,
2013-09-12 13:50:00,68.9,54.9,29.99,North,355,0.0,4.0,61,0.00,,BKN065,0.00,860.00,VWS V14.01,2013-09-12 18:50:00,
2013-09-12 13:55:00,69.3,54.4,29.99,NW,309,1.0,10.0,59,0.00,,BKN065,0.00,875.00,VWS V14.01,2013-09-12 18:55:00,
2013-09-12 14:00:00,69.8,54.8,29.99,NNW,328,1.0,2.0,59,0.00,,BKN055,0.00,91.00,VWS V14.01,2013-09-12 19:00:00,
2013-09-12 14:05:00,69.5,54.1,29.99,North,355,5.0,6.0,58,0.00,,BKN055,0.00,62.00,VWS V14.01,2013-09-12 19:05:00,
2013-09-12 14:10:00,68.9,53.5,29.99,NW,312,0.0,1.0,58,0.00,,BKN055,0.00,65.00,VWS V14.01,2013-09-12 19:10:00,
2013-09-12 14:15:00,68.9,54.5,29.99,NW,305,3.0,10.0,60,0.00,,BKN055,0.00,867.00,VWS V14.01,2013-09-12 19:15:00,
2013-09-12 14:20:00,70.0,54.1,29.99,NNE,24,4.0,6.0,57,0.00,,BKN055,0.00,828.00,VWS V14.01,2013-09-12 19:20:00,
2013-09-12 14:25:00,70.4,56.3,29.99,NNE,12,3.0,10.0,61,0.00,,BKN055,0.00,796.00,VWS V14.01,2013-09-12 19:25:00,
2013-09-12 14:30:00,70.8,53.3,29.99,West,276,3.0,5.0,54,0.00,,SCT070,0.00,803.00,VWS V14.01,2013-09-12 19:30:00,
2013-09-12 14:35:00,71.0,54.0,29.99,NNW,344,2.0,11.0,55,0.00,,SCT070,0.00,865.00,VWS V14.01,2013-09-12 19:35:00,
2013-09-12 14:40:00,71.5,55.0,29.99,WNW,298,0.0,13.0,56,0.00,,SCT070,0.00,805.00,VWS V14.01,2013-09-12 19:40:00,
2013-09-12 14:45:00,71.5,54.0,29.99,NW,317,6.0,13.0,54,0.00,,BKN100,0.00,234.00,VWS V14.01,2013-09-12 19:45:00,
2013-09-12 14:50:00,71.0,55.0,29.99,NNW,348,1.0,4.0,57,0.00,,BKN100,0.00,831.00,VWS V14.01,2013-09-12 19:50:00,
2013-09-12 14:55:00,70.4,54.5,29.98,NNW,348,9.0,15.0,57,0.00,,BKN100,0.00,807.00,VWS V14.01,2013-09-12 19:55:00,
2013-09-12 15:00:00,70.8,54.3,29.99,NW,309,12.0,12.0,56,0.00,,BKN100,0.00,814.00,VWS V14.01,2013-09-12 20:00:00,
2013-09-12 15:05:00,70.5,54.5,29.99,NNE,22,6.0,15.0,57,0.00,,SCT100,0.00,88.00,VWS V14.01,2013-09-12 20:05:00,
2013-09-12 15:10:00,70.6,54.6,29.99,NNW,346,6.0,6.0,57,0.00,,SCT100,0.00,694.00,VWS V14.01,2013-09-12 20:10:00,
2013-09-12 15:15:00,71.0,54.0,29.99,NNE,20,4.0,13.0,55,0.00,,SCT100,0.00,105.00,VWS V14.01,2013-09-12 20:15:00,
2013-09-12 15:20:00,70.4,54.0,29.99,NNE,17,9.0,15.0,56,0.00,,SCT100,0.00,70.00,VWS V14.01,2013-09-12 20:20:00,
2013-09-12 15:25:00,69.8,53.9,29.99,North,350,3.0,15.0,57,0.00,,SCT100,0.00,661.00,VWS V14.01,2013-09-12 20:25:00,
2013-09-12 15:30:00,70.0,52.6,29.99,NE,37,4.0,9.0,54,0.00,,SCT100,0.00,638.00,VWS V14.01,2013-09-12 20:30:00,
2013-09-12 15:35:00,70.0,52.6,29.98,West,270,3.0,9.0,54,0.00,,SCT075,0.00,631.00,VWS V14.01,2013-09-12 20:35:00,
2013-09-12 15:40:00,70.1,52.7,29.98,West,262,3.0,10.0,54,0.00,,SCT075,0.00,663.00,VWS V14.01,2013-09-12 20:40:00,
2013-09-12 15:45:00,70.5,53.1,29.98,NW,321,3.0,13.0,54,0.00,,SCT075,0.00,109.00,VWS V14.01,2013-09-12 20:45:00,
2013-09-12 15:50:00,70.6,52.1,29.98,WNW,290,11.0,14.0,52,0.00,,SCT110,0.00,144.00,VWS V14.01,2013-09-12 20:50:00,
2013-09-12 15:55:00,70.4,52.0,29.99,NW,321,2.0,17.0,52,0.00,,SCT110,0.00,62.00,VWS V14.01,2013-09-12 20:55:00,
2013-09-12 16:00:00,69.9,52.0,29.99,NNW,342,4.0,4.0,53,0.00,,SCT110,0.00,81.00,VWS V14.01,2013-09-12 21:00:00,
2013-09-12 16:05:00,69.7,52.3,29.99,North,360,9.0,17.0,54,0.00,,BKN075,0.00,130.00,VWS V14.01,2013-09-12 21:05:00,
2013-09-12 16:10:00,69.7,52.3,29.99,NNE,13,6.0,10.0,54,0.00,,BKN075,0.00,292.00,VWS V14.01,2013-09-12 21:10:00,
2013-09-12 16:15:00,69.6,50.2,29.99,North,9,10.0,17.0,50,0.00,,BKN075,0.00,69.00,VWS V14.01,2013-09-12 21:15:00,
2013-09-12 16:20:00,69.6,51.2,29.99,NNW,334,7.0,7.0,52,0.00,,BKN075,0.00,46.00,VWS V14.01,2013-09-12 21:20:00,
2013-09-12 16:25:00,69.6,51.7,29.99,NNW,341,5.0,15.0,53,0.00,,BKN075,0.00,49.00,VWS V14.01,2013-09-12 21:25:00,
2013-09-12 16:30:00,69.6,51.7,29.99,NNE,24,1.0,4.0,53,0.00,,BKN075,0.00,70.00,VWS V14.01,2013-09-12 21:30:00,
2013-09-12 16:35:00,69.6,50.7,30.00,North,360,8.0,18.0,51,0.00,,SCT050,0.00,37.00,VWS V14.01,2013-09-12 21:35:00,
2013-09-12 16:40:00,69.2,50.8,29.99,NNE,30,4.0,9.0,52,0.00,,SCT050,0.00,25.00,VWS V14.01,2013-09-12 21:40:00,
2013-09-12 16:45:00,68.7,51.4,29.99,NE,36,4.0,12.0,54,0.00,,SCT050,0.00,40.00,VWS V14.01,2013-09-12 21:45:00,
2013-09-12 16:50:00,68.6,50.8,29.99,NNW,338,5.0,9.0,53,0.00,,SCT050,0.00,65.00,VWS V14.01,2013-09-12 21:50:00,
2013-09-12 16:55:00,68.8,52.5,29.99,NW,311,7.0,16.0,56,0.00,,SCT050,0.00,56.00,VWS V14.01,2013-09-12 21:55:00,
2013-09-12 17:00:00,68.7,52.4,30.00,NNW,344,6.0,13.0,56,0.00,,SCT050,0.00,26.00,VWS V14.01,2013-09-12 22:00:00,
2013-09-12 17:05:00,68.3,52.0,30.00,NW,308,8.0,15.0,56,0.00,,BKN075,0.00,44.00,VWS V14.01,2013-09-12 22:05:00,
2013-09-12 17:10:00,67.9,51.6,30.00,West,269,4.0,4.0,56,0.00,,BKN075,0.00,33.00,VWS V14.01,2013-09-12 22:10:00,
2013-09-12 17:15:00,67.6,51.8,30.00,NW,319,6.0,11.0,57,0.00,,BKN075,0.00,33.00,VWS V14.01,2013-09-12 22:15:00,
2013-09-12 17:20:00,67.6,52.3,30.00,WNW,294,2.0,10.0,58,0.00,,BKN075,0.00,42.00,VWS V14.01,2013-09-12 22:20:00,
2013-09-12 17:25:00,67.8,53.0,30.00,WNW,284,14.0,14.0,59,0.00,,BKN075,0.00,74.00,VWS V14.01,2013-09-12 22:25:00,
2013-09-12 17:30:00,67.9,52.6,30.00,NNE,23,9.0,12.0,58,0.00,,BKN075,0.00,47.00,VWS V14.01,2013-09-12 22:30:00,
2013-09-12 17:35:00,67.9,51.6,30.00,North,5,9.0,16.0,56,0.00,,SCT065,0.00,60.00,VWS V14.01,2013-09-12 22:35:00,
2013-09-12 17:40:00,67.7,51.0,30.00,North,355,11.0,12.0,55,0.00,,SCT065,0.00,54.00,VWS V14.01,2013-09-12 22:40:00,
2013-09-12 17:45:00,67.5,51.3,30.00,North,11,10.0,14.0,56,0.00,,SCT065,0.00,21.00,VWS V14.01,2013-09-12 22:45:00,
2013-09-12 17:50:00,67.4,51.2,30.01,NW,315,0.0,5.0,56,0.00,,BKN065,0.00,21.00,VWS V14.01,2013-09-12 22:50:00,
2013-09-12 17:55:00,67.1,50.9,30.01,NW,321,2.0,6.0,56,0.00,,BKN065,0.00,16.00,VWS V14.01,2013-09-12 22:55:00,
2013-09-12 18:00:00,66.9,51.2,30.01,North,9,3.0,7.0,57,0.00,,BKN065,0.00,33.00,VWS V14.01,2013-09-12 23:00:00,
2013-09-12 18:05:00,66.7,51.0,30.02,WNW,285,0.0,7.0,57,0.00,,SCT065,0.00,18.00,VWS V14.01,2013-09-12 23:05:00,
2013-09-12 18:10:00,66.7,51.0,30.02,NNW,327,2.0,5.0,57,0.00,,SCT065,0.00,16.00,VWS V14.01,2013-09-12 23:10:00,
2013-09-12 18:15:00,66.6,50.0,30.02,NNE,17,6.0,10.0,55,0.00,,SCT065,0.00,16.00,VWS V14.01,2013-09-12 23:15:00,
2013-09-12 18:20:00,66.5,50.3,30.02,NNE,15,9.0,11.0,56,0.00,,SCT065,0.00,14.00,VWS V14.01,2013-09-12 23:20:00,
2013-09-12 18:25:00,66.3,49.7,30.03,NNW,340,7.0,19.0,55,0.00,,SCT065,0.00,12.00,VWS V14.01,2013-09-12 23:25:00,
2013-09-12 18:30:00,66.1,50.4,30.03,WSW,254,5.0,6.0,57,0.00,,SCT065,0.00,7.00,VWS V14.01,2013-09-12 23:30:00,
2013-09-12 18:35:00,65.7,49.6,30.03,NE,40,1.0,12.0,56,0.00,,CLR,0.00,7.00,VWS V14.01,2013-09-12 23:35:00,
2013-09-12 18:40:00,65.5,49.4,30.03,North,5,7.0,7.0,56,0.00,,CLR,0.00,7.00,VWS V14.01,2013-09-12 23:40:00,
2013-09-12 18:45:00,65.2,49.6,30.03,NW,317,4.0,13.0,57,0.00,,CLR,0.00,7.00,VWS V14.01,2013-09-12 23:45:00,
2013-09-12 18:50:00,65.0,49.9,30.03,NNE,16,9.0,13.0,58,0.00,,CLR,0.00,7.00,VWS V14.01,2013-09-12 23:50:00,
2013-09-12 18:55:00,64.8,50.2,30.03,NNE,13,3.0,13.0,59,0.00,,CLR,0.00,5.00,VWS V14.01,2013-09-12 23:55:00,
2013-09-12 19:00:00,64.6,50.4,30.04,NNE,21,8.0,9.0,60,0.00,,CLR,0.00,0.00,VWS V14.01,2013-09-13 00:00:00,
2013-09-12 19:05:00,64.3,49.7,30.04,North,10,0.0,9.0,59,0.00,,CLR,0.00,0.00,VWS V14.01,2013-09-13 00:05:00,
2013-09-12 19:10:00,64.1,50.0,30.04,North,349,3.0,5.0,60,0.00,,CLR,0.00,0.00,VWS V14.01,2013-09-13 00:10:00,
2013-09-12 19:15:00,63.8,50.1,30.05,NE,38,6.0,7.0,61,0.00,,CLR,0.00,0.00,VWS V14.01,2013-09-13 00:15:00,
2013-09-12 19:20:00,63.7,50.0,30.05,NNW,339,1.0,3.0,61,0.00,,CLR,0.00,0.00,VWS V14.01,2013-09-13 00:20:00,
2013-09-12 19:25:00,63.4,49.7,30.05,NNE,17,4.0,12.0,61,0.00,,CLR,0.00,0.00,VWS V14.01,2013-09-13 00:25:00,
2013-09-12 19:30:00,63.2,49.5,30.05,NNE,14,3.0,5.0,61,0.00,,CLR,0.00,0.00,VWS V14.01,2013-09-13 00:30:00,
2013-09-12 19:35:00,63.0,49.8,30.05,North,355,3.0,5.0,62,0.00,,SCT060,0.00,0.00,VWS V14.01,2013-09-13 00:35:00,
2013-09-12 19:40:00,62.8,49.6,30.06,NW,306,4.0,5.0,62,0.00,,SCT060,0.00,0.00,VWS V14.01,2013-09-13 00:40:00,
2013-09-12 19:45:00,62.5,49.8,30.06,WNW,299,5.0,10.0,63,0.00,,SCT060,0.00,0.00,VWS V14.01,2013-09-13 00:45:00,
2013-09-12 19:50:00,62.3,49.6,30.06,NNE,26,8.0,8.0,63,0.00,,SCT060,0.00,0.00,VWS V14.01,2013-09-13 00:50:00,
2013-09-12 19:55:00,62.1,50.2,30.07,NE,39,7.0,15.0,65,0.00,,SCT060,0.00,0.00,VWS V14.01,2013-09-13 00:55:00,
2013-09-12 20:00:00,62.0,49.7,30.07,North,5,9.0,12.0,64,0.00,,SCT060,0.00,0.00,VWS V14.01,2013-09-13 01:00:00,
2013-09-12 20:05:00,61.8,49.5,30.07,North,11,4.0,12.0,64,0.00,,SCT060,0.00,0.00,VWS V14.01,2013-09-13 01:05:00,
2013-09-12 20:10:00,61.5,49.6,30.08,North,10,3.0,3.0,65,0.00,,SCT060,0.00,0.00,VWS V14.01,2013-09-13 01:10:00,
2013-09-12 20:15:00,61.2,49.3,30.08,North,9,6.0,6.0,65,0.00,,SCT060,0.00,0.00,VWS V14.01,2013-09-13 01:15:00,
2013-09-12 20:20:00,61.0,49.2,30.08,North,349,2.0,2.0,65,0.00,,SCT060,0.00,0.00,VWS V14.01,2013-09-13 01:20:00,
2013-09-12 20:25:00,60.9,49.9,30.08,North,10,5.0,6.0,67,0.00,,SCT060,0.00,0.00,VWS V14.01,2013-09-13 01:25:00,
2013-09-12 20:30:00,60.8,50.2,30.09,NNE,23,6.0,6.0,68,0.00,,SCT060,0.00,0.00,VWS V14.01,2013-09-13 01:30:00,
2013-09-12 20:35:00,60.7,50.1,30.09,North,355,9.0,11.0,68,0.00,,SCT060,0.00,0.00,VWS V14.01,2013-09-13 01:35:00,
2013-09-12 20:40:00,60.4,49.8,30.09,North,360,6.0,6.0,68,0.00,,SCT060,0.00,0.00,VWS V14.01,2013-09-13 01:40:00,
2013-09-12 20:45:00,60.0,49.8,30.09,North,349,5.0,9.0,69,0.00,,SCT060,0.00,0.00,VWS V14.01,2013-09-13 01:45:00,
2013-09-12 20:50:00,59.7,49.5,30.09,North,360,4.0,4.0,69,0.00,,BKN060,0.00,0.00,VWS V14.01,2013-09-13 01:50:00,
2013-09-12 20:55:00,59.4,49.6,30.09,NNW,339,2.0,6.0,70,0.00,,BKN060,0.00,0.00,VWS V14.01,2013-09-13 01:55:00,
2013-09-12 21:00:00,59.1,49.3,30.10,NNE,19,1.0,3.0,70,0.00,,BKN060,0.00,0.00,VWS V14.01,2013-09-13 02:00:00,
2013-09-12 21:05:00,58.7,48.6,30.10,North,360,4.0,6.0,69,0.00,,SCT060,0.00,0.00,VWS V14.01,2013-09-13 02:05:00,
2013-09-12 21:10:00,58.4,47.9,30.10,NNE,28,8.0,9.0,68,0.00,,SCT060,0.00,0.00,VWS V14.01,2013-09-13 02:10:00,
2013-09-12 21:15:00,58.2,48.1,30.10,North,5,1.0,10.0,69,0.00,,SCT060,0.00,0.00,VWS V14.01,2013-09-13 02:15:00,
2013-09-12 21:20:00,57.9,47.4,30.10,North,360,5.0,7.0,68,0.00,,SCT060,0.00,0.00,VWS V14.01,2013-09-13 02:20:00,
2013-09-12 21:25:00,57.7,46.8,30.11,North,349,4.0,10.0,67,0.00,,SCT060,0.00,0.00,VWS V14.01,2013-09-13 02:25:00,
2013-09-12 21:30:00,57.5,46.2,30.10,NE,36,6.0,6.0,66,0.00,,SCT060,0.00,0.00,VWS V14.01,2013-09-13 02:30:00,
2013-09-12 21:35:00,57.4,47.3,30.11,North,5,3.0,8.0,69,0.00,,CLR,0.00,0.00,VWS V14.01,2013-09-13 02:35:00,
2013-09-12 21:40:00,57.2,46.8,30.11,NNW,342,8.0,8.0,68,0.00,,CLR,0.00,0.00,VWS V14.01,2013-09-13 02:40:00,
2013-09-12 21:45:00,56.9,46.5,30.11,NNE,13,0.0,9.0,68,0.00,,CLR,0.00,0.00,VWS V14.01,2013-09-13 02:45:00,
2013-09-12 21:50:00,56.7,46.3,30.11,North,5,0.0,1.0,68,0.00,,CLR,0.00,0.00,VWS V14.01,2013-09-13 02:50:00,
2013-09-12 22:00:00,56.2,45.8,30.11,North,0,1.0,4.0,68,0.00,,CLR,0.00,0.00,VWS V14.01,2013-09-13 03:00:00,
2013-09-12 22:10:00,55.7,45.7,30.11,North,0,1.0,4.0,69,0.00,,CLR,0.00,0.00,VWS V14.01,2013-09-13 03:10:00,
2013-09-12 22:20:00,55.1,45.5,30.12,North,0,0.0,2.0,70,0.00,,CLR,0.00,0.00,VWS V14.01,2013-09-13 03:20:00,
2013-09-12 22:30:00,54.7,45.1,30.12,North,0,1.0,4.0,70,0.00,,CLR,0.00,0.00,VWS V14.01,2013-09-13 03:30:00,
2013-09-12 22:40:00,54.3,44.7,30.12,WNW,292,0.0,2.0,70,0.00,,CLR,0.00,0.00,VWS V14.01,2013-09-13 03:40:00,
2013-09-12 22:50:00,54.1,45.3,30.12,NNW,338,2.0,10.0,72,0.00,,CLR,0.00,0.00,VWS V14.01,2013-09-13 03:50:00,
2013-09-12 23:00:00,53.7,44.9,30.12,NNW,338,1.0,5.0,72,0.00,,CLR,0.00,0.00,VWS V14.01,2013-09-13 04:00:00,
2013-09-12 23:10:00,53.5,45.1,30.13,NNW,338,1.0,4.0,73,0.00,,CLR,0.00,0.00,VWS V14.01,2013-09-13 04:10:00,
2013-09-12 23:20:00,53.3,45.2,30.13,NNW,338,1.0,4.0,74,0.00,,CLR,0.00,0.00,VWS V14.01,2013-09-13 04:20:00,
2013-09-12 23:30:00,53.1,45.0,30.13,North,0,1.0,4.0,74,0.00,,CLR,0.00,0.00,VWS V14.01,2013-09-13 04:30:00,
2013-09-12 23:40:00,52.9,45.5,30.13,NNE,22,2.0,6.0,76,0.00,,CLR,0.00,0.00,VWS V14.01,2013-09-13 04:40:00,
2013-09-12 23:50:00,52.8,45.8,30.13,North,0,2.0,6.0,77,0.00,,CLR,0.00,0.00,VWS V14.01,2013-09-13 04:50:00,